createdAt,value
2018-12-09T00:00:12.635Z,8.90
2018-12-09T00:02:47.228Z,8.90
2018-12-09T00:05:21.759Z,8.90
2018-12-09T00:07:56.076Z,9.10
2018-12-09T00:10:28.511Z,9.00
2018-12-09T00:13:00.657Z,9.10
2018-12-09T00:15:32.883Z,9.00
2018-12-09T00:18:07.352Z,8.90
2018-12-09T00:20:40.512Z,9.00
2018-12-09T00:23:13.318Z,9.00
2018-12-09T00:25:47.419Z,9.00
2018-12-09T00:28:19.707Z,9.00
2018-12-09T00:30:51.950Z,8.90
2018-12-09T00:33:24.767Z,8.90
2018-12-09T00:35:57.013Z,8.80
2018-12-09T00:38:29.335Z,8.80
2018-12-09T00:41:02.165Z,8.80
2018-12-09T00:43:34.405Z,9.00
2018-12-09T00:46:07.364Z,9.00
2018-12-09T00:48:39.795Z,9.00
2018-12-09T00:51:12.756Z,9.20
2018-12-09T00:53:45.016Z,9.10
2018-12-09T00:56:17.248Z,9.10
2018-12-09T00:58:49.500Z,9.20
2018-12-09T01:01:22.425Z,9.30
2018-12-09T01:03:55.449Z,9.40
2018-12-09T01:06:28.562Z,9.30
2018-12-09T01:08:58.810Z,9.40
2018-12-09T01:11:32.228Z,9.40
2018-12-09T01:14:05.068Z,9.30
2018-12-09T01:16:39.266Z,9.30
2018-12-09T01:19:15.629Z,9.20
2018-12-09T01:21:48.059Z,9.20
2018-12-09T01:24:20.256Z,9.20
2018-12-09T01:26:54.188Z,9.20
2018-12-09T01:29:26.508Z,9.20
2018-12-09T01:32:01.907Z,9.20
2018-12-09T01:34:34.620Z,9.20
2018-12-09T01:37:06.810Z,9.10
2018-12-09T01:39:39.900Z,9.10
2018-12-09T01:42:13.620Z,9.10
2018-12-09T01:44:45.862Z,9.10
2018-12-09T01:47:18.039Z,9.10
2018-12-09T01:49:50.982Z,9.10
2018-12-09T01:52:23.479Z,9.10
2018-12-09T01:54:55.660Z,9.10
2018-12-09T01:57:28.528Z,9.00
2018-12-09T02:00:01.075Z,8.90
2018-12-09T02:02:34.133Z,8.80
2018-12-09T02:05:06.573Z,8.70
2018-12-09T02:07:40.327Z,8.70
2018-12-09T02:13:13.569Z,8.20
2018-12-09T02:15:47.217Z,7.70
2018-12-09T02:18:17.828Z,7.40
2018-12-09T02:20:52.751Z,7.40
2018-12-09T02:23:27.612Z,7.50
2018-12-09T02:26:00.647Z,7.50
2018-12-09T02:28:43.784Z,7.60
2018-12-09T02:34:18.060Z,7.60
2018-12-09T02:37:00.393Z,7.60
2018-12-09T02:39:33.074Z,7.60
2018-12-09T02:42:02.288Z,7.50
2018-12-09T02:44:37.220Z,7.50
2018-12-09T02:47:16.122Z,7.50
2018-12-09T02:49:46.935Z,7.60
2018-12-09T02:52:20.124Z,7.50
2018-12-09T02:54:52.259Z,7.70
2018-12-09T02:57:21.456Z,7.60
2018-12-09T03:00:04.661Z,7.60
2018-12-09T03:02:36.187Z,7.60
2018-12-09T03:05:05.777Z,7.50
2018-12-09T03:07:35.005Z,7.40
2018-12-09T03:10:04.277Z,7.30
2018-12-09T03:12:41.432Z,7.30
2018-12-09T03:15:10.772Z,7.30
2018-12-09T03:17:59.598Z,7.30
2018-12-09T03:20:28.680Z,7.30
2018-12-09T03:22:57.705Z,7.30
2018-12-09T03:25:26.893Z,7.30
2018-12-09T03:27:55.960Z,7.30
2018-12-09T03:30:25.046Z,7.40
2018-12-09T03:32:54.105Z,7.50
2018-12-09T03:35:23.172Z,7.60
2018-12-09T03:37:52.632Z,7.70
2018-12-09T03:40:35.471Z,7.70
2018-12-09T03:43:04.668Z,7.80
2018-12-09T03:45:37.258Z,7.90
2018-12-09T03:48:06.340Z,7.90
2018-12-09T03:50:35.403Z,7.90
2018-12-09T03:53:10.245Z,8.00
2018-12-09T03:55:44.894Z,7.90
2018-12-09T03:58:17.480Z,7.90
2018-12-09T04:03:47.543Z,7.90
2018-12-09T04:06:16.609Z,7.80
2018-12-09T04:08:47.661Z,7.80
2018-12-09T04:11:22.640Z,7.90
2018-12-09T04:13:57.605Z,7.90
2018-12-09T04:16:26.808Z,7.90
2018-12-09T04:19:01.594Z,7.80
2018-12-09T04:21:36.296Z,7.70
2018-12-09T04:24:17.484Z,7.70
2018-12-09T04:26:49.676Z,7.60
2018-12-09T04:29:19.119Z,7.60
2018-12-09T04:31:48.269Z,7.60
2018-12-09T04:34:20.566Z,7.70
2018-12-09T04:36:51.092Z,7.80
2018-12-09T04:39:20.245Z,7.90
2018-12-09T04:41:49.352Z,7.90
2018-12-09T04:44:18.424Z,7.90
2018-12-09T04:46:53.447Z,7.90
2018-12-09T04:49:32.176Z,7.90
2018-12-09T04:52:02.503Z,7.90
2018-12-09T04:54:33.456Z,7.80
2018-12-09T04:57:06.204Z,7.80
2018-12-09T04:59:45.362Z,7.70
2018-12-09T05:02:14.480Z,7.60
2018-12-09T05:04:49.520Z,7.50
2018-12-09T05:07:30.824Z,7.40
2018-12-09T05:10:13.311Z,7.40
2018-12-09T05:12:42.427Z,7.40
2018-12-09T05:15:12.022Z,7.40
2018-12-09T05:17:41.107Z,7.30
2018-12-09T05:20:16.065Z,7.20
2018-12-09T05:22:45.228Z,7.20
2018-12-09T05:25:14.567Z,7.20
2018-12-09T05:27:43.654Z,7.10
2018-12-09T05:30:12.717Z,7.10
2018-12-09T05:32:41.819Z,7.10
2018-12-09T05:35:10.887Z,7.10
2018-12-09T05:37:39.976Z,7.10
2018-12-09T05:40:09.056Z,7.10
2018-12-09T05:42:38.103Z,7.10
2018-12-09T05:45:07.347Z,7.20
2018-12-09T05:47:36.403Z,7.20
2018-12-09T05:50:10.896Z,7.30
2018-12-09T05:52:39.955Z,7.20
2018-12-09T05:55:09.185Z,7.30
2018-12-09T05:57:39.236Z,7.30
2018-12-09T06:00:08.360Z,7.30
2018-12-09T06:02:52.084Z,7.40
2018-12-09T06:05:21.187Z,7.40
2018-12-09T06:07:50.731Z,7.40
2018-12-09T06:10:19.809Z,7.40
2018-12-09T06:12:48.871Z,7.40
2018-12-09T06:15:17.973Z,7.40
2018-12-09T06:17:47.012Z,7.40
2018-12-09T06:20:16.084Z,7.50
2018-12-09T06:22:45.242Z,7.40
2018-12-09T06:25:14.345Z,7.40
2018-12-09T06:27:43.622Z,7.50
2018-12-09T06:30:12.749Z,7.40
2018-12-09T06:32:41.817Z,7.50
2018-12-09T06:35:10.906Z,7.50
2018-12-09T06:37:39.948Z,7.50
2018-12-09T06:40:09.165Z,7.60
2018-12-09T06:42:38.432Z,7.60
2018-12-09T06:45:07.757Z,7.60
2018-12-09T06:47:36.786Z,7.70
2018-12-09T06:50:08.263Z,7.60
2018-12-09T06:52:37.298Z,7.70
2018-12-09T06:55:08.087Z,7.80
2018-12-09T06:57:37.255Z,7.80
2018-12-09T07:00:08.256Z,7.80
2018-12-09T07:02:37.315Z,7.90
2018-12-09T07:05:07.625Z,7.90
2018-12-09T07:07:36.704Z,7.90
2018-12-09T07:10:08.444Z,8.00
2018-12-09T07:12:39.500Z,8.00
2018-12-09T07:15:09.547Z,8.00
2018-12-09T07:17:40.134Z,8.00
2018-12-09T07:20:09.237Z,8.00
2018-12-09T07:22:38.330Z,8.00
2018-12-09T07:25:09.450Z,8.10
2018-12-09T07:27:39.560Z,8.10
2018-12-09T07:30:10.590Z,8.10
2018-12-09T07:32:40.172Z,8.10
2018-12-09T07:35:09.442Z,8.10
2018-12-09T07:37:42.382Z,8.10
2018-12-09T07:40:15.476Z,8.10
2018-12-09T07:42:49.711Z,8.10
2018-12-09T07:45:24.492Z,8.10
2018-12-09T07:47:57.745Z,8.10
2018-12-09T07:50:32.974Z,8.10
2018-12-09T07:53:06.475Z,8.10
2018-12-09T07:55:38.884Z,8.10
2018-12-09T07:58:11.915Z,8.20
2018-12-09T08:00:45.076Z,8.20
2018-12-09T08:03:17.512Z,8.20
2018-12-09T08:08:49.712Z,8.20
2018-12-09T08:11:20.003Z,8.20
2018-12-09T08:13:50.546Z,8.30
2018-12-09T08:16:20.521Z,8.30
2018-12-09T08:18:50.889Z,8.40
2018-12-09T08:21:23.267Z,8.30
2018-12-09T08:23:55.415Z,8.40
2018-12-09T08:29:18.270Z,8.40
2018-12-09T08:31:47.903Z,8.50
2018-12-09T08:34:17.729Z,8.40
2018-12-09T08:36:47.038Z,8.40
2018-12-09T08:39:16.413Z,8.50
2018-12-09T08:41:46.149Z,8.50
2018-12-09T08:44:15.615Z,8.50
2018-12-09T08:46:46.545Z,8.50
2018-12-09T08:49:17.171Z,8.50
2018-12-09T08:52:08.319Z,8.50
2018-12-09T08:54:37.700Z,8.50
2018-12-09T08:57:07.247Z,8.50
2018-12-09T08:59:36.389Z,8.60
2018-12-09T09:02:05.825Z,8.50
2018-12-09T09:04:35.328Z,8.50
2018-12-09T09:07:04.412Z,8.40
2018-12-09T09:09:33.518Z,8.40
2018-12-09T09:12:02.683Z,8.40
2018-12-09T09:14:31.907Z,8.30
2018-12-09T09:17:01.095Z,8.30
2018-12-09T09:19:30.225Z,8.30
2018-12-09T09:22:05.785Z,8.40
2018-12-09T09:24:37.966Z,8.40
2018-12-09T09:27:11.443Z,8.40
2018-12-09T09:29:42.704Z,8.50
2018-12-09T09:32:17.460Z,8.50
2018-12-09T09:34:50.474Z,8.60
2018-12-09T09:37:23.335Z,8.60
2018-12-09T09:39:54.360Z,8.70
2018-12-09T09:42:29.654Z,8.70
2018-12-09T09:45:03.692Z,8.80
2018-12-09T09:47:39.843Z,8.70
2018-12-09T09:50:14.169Z,8.80
2018-12-09T09:52:48.579Z,8.80
2018-12-09T09:55:25.003Z,8.70
2018-12-09T09:58:03.794Z,8.70
2018-12-09T10:00:37.038Z,8.70
2018-12-09T10:03:12.090Z,8.80
2018-12-09T10:05:45.093Z,8.70
2018-12-09T10:08:19.160Z,8.70
2018-12-09T10:10:55.732Z,8.80
2018-12-09T10:13:36.464Z,8.80
2018-12-09T10:16:08.516Z,8.80
2018-12-09T10:18:38.628Z,8.80
2018-12-09T10:21:10.737Z,8.80
2018-12-09T10:23:41.155Z,8.90
2018-12-09T10:26:13.362Z,8.80
2018-12-09T10:28:45.422Z,8.80
2018-12-09T10:31:23.655Z,8.80
2018-12-09T10:37:10.501Z,8.80
2018-12-09T10:39:54.100Z,8.80
2018-12-09T10:45:31.580Z,8.70
2018-12-09T10:48:03.931Z,8.70
2018-12-09T10:50:39.830Z,8.80
2018-12-09T10:53:13.321Z,8.80
2018-12-09T10:55:48.968Z,8.80
2018-12-09T10:58:23.761Z,8.80
2018-12-09T11:01:04.531Z,8.80
2018-12-09T11:06:38.787Z,8.90
2018-12-09T11:09:17.869Z,8.90
2018-12-09T11:11:47.548Z,9.00
2018-12-09T11:14:23.668Z,9.00
2018-12-09T11:17:07.165Z,9.10
2018-12-09T11:19:38.886Z,9.10
2018-12-09T11:22:09.117Z,9.20
2018-12-09T11:24:44.470Z,9.20
2018-12-09T11:27:17.478Z,9.30
2018-12-09T11:29:48.448Z,9.30
2018-12-09T11:32:23.257Z,9.30
2018-12-09T11:34:55.832Z,9.30
2018-12-09T11:37:26.125Z,9.20
2018-12-09T11:39:59.240Z,9.20
2018-12-09T11:42:32.150Z,9.20
2018-12-09T11:45:02.578Z,9.10
2018-12-09T11:47:35.359Z,9.00
2018-12-09T11:50:07.014Z,8.90
2018-12-09T11:52:37.666Z,8.90
2018-12-09T11:55:10.637Z,8.90
2018-12-09T11:57:47.037Z,8.90
2018-12-09T12:00:17.491Z,8.90
2018-12-09T12:02:52.512Z,8.90
2018-12-09T12:05:24.846Z,8.90
2018-12-09T12:07:57.704Z,8.90
2018-12-09T12:10:33.118Z,9.00
2018-12-09T12:13:09.404Z,8.90
2018-12-09T12:15:42.160Z,8.90
2018-12-09T12:18:17.840Z,8.90
2018-12-09T12:20:52.640Z,9.00
2018-12-09T12:23:25.528Z,9.00
2018-12-09T12:26:01.067Z,9.00
2018-12-09T12:28:34.036Z,9.00
2018-12-09T12:31:08.798Z,8.90
2018-12-09T12:33:41.591Z,9.00
2018-12-09T12:36:11.908Z,9.00
2018-12-09T12:38:44.002Z,9.00
2018-12-09T12:41:19.256Z,9.10
2018-12-09T12:43:49.979Z,9.20
2018-12-09T12:46:23.169Z,9.30
2018-12-09T12:48:55.348Z,9.30
2018-12-09T12:51:28.432Z,9.50
2018-12-09T12:54:01.425Z,9.50
2018-12-09T12:56:36.996Z,9.50
2018-12-09T12:59:09.679Z,9.60
2018-12-09T13:01:42.888Z,9.60
2018-12-09T13:04:18.631Z,9.60
2018-12-09T13:06:54.079Z,9.70
2018-12-09T13:09:26.400Z,9.70
2018-12-09T13:11:59.537Z,9.70
2018-12-09T13:14:34.993Z,9.80
2018-12-09T13:17:05.671Z,9.80
2018-12-09T13:19:36.848Z,9.70
2018-12-09T13:22:09.059Z,9.60
2018-12-09T13:24:38.777Z,9.40
2018-12-09T13:27:09.702Z,9.10
2018-12-09T13:29:40.192Z,8.90
2018-12-09T13:32:14.005Z,8.80
2018-12-09T13:34:47.186Z,8.40
2018-12-09T13:37:22.447Z,8.10
2018-12-09T13:39:57.850Z,7.70
2018-12-09T13:45:17.803Z,7.50
2018-12-09T13:47:52.841Z,7.40
2018-12-09T13:50:26.810Z,7.40
2018-12-09T13:53:02.078Z,7.40
2018-12-09T13:55:35.474Z,7.30
2018-12-09T13:58:10.036Z,7.40
2018-12-09T14:00:43.509Z,7.40
2018-12-09T14:03:33.777Z,7.40
2018-12-09T14:06:06.791Z,7.40
2018-12-09T14:08:43.365Z,7.60
2018-12-09T14:11:14.045Z,7.50
2018-12-09T14:13:48.242Z,7.60
2018-12-09T14:16:24.056Z,7.60
2018-12-09T14:18:58.032Z,7.60
2018-12-09T14:21:33.296Z,7.40
2018-12-09T14:24:08.213Z,7.40
2018-12-09T14:26:44.157Z,7.30
2018-12-09T14:29:16.768Z,7.40
2018-12-09T14:31:50.415Z,7.40
2018-12-09T14:34:22.653Z,7.50
2018-12-09T14:36:56.464Z,7.50
2018-12-09T14:39:27.632Z,7.60
2018-12-09T14:42:00.556Z,7.60
2018-12-09T14:44:33.667Z,7.70
2018-12-09T14:47:06.458Z,7.70
2018-12-09T14:49:39.236Z,7.80
2018-12-09T14:52:10.052Z,7.70
2018-12-09T14:54:42.962Z,7.80
2018-12-09T14:57:24.868Z,7.80
2018-12-09T15:00:04.602Z,7.90
2018-12-09T15:02:37.358Z,7.90
2018-12-09T15:05:07.571Z,8.00
2018-12-09T15:07:42.321Z,8.10
2018-12-09T15:10:18.463Z,8.10
2018-12-09T15:12:59.655Z,8.10
2018-12-09T15:15:34.316Z,8.10
2018-12-09T15:18:07.694Z,8.10
2018-12-09T15:20:43.167Z,8.10
2018-12-09T15:23:19.442Z,8.10
2018-12-09T15:26:00.464Z,8.10
2018-12-09T15:28:36.718Z,8.10
2018-12-09T15:31:13.822Z,8.20
2018-12-09T15:33:43.976Z,8.20
2018-12-09T15:36:13.136Z,8.30
2018-12-09T15:38:42.229Z,8.40
2018-12-09T15:41:11.282Z,8.40
2018-12-09T15:43:40.778Z,8.50
2018-12-09T15:46:10.860Z,8.50
2018-12-09T15:48:40.738Z,8.50
2018-12-09T15:51:13.145Z,8.60
2018-12-09T15:54:00.397Z,8.60
2018-12-09T15:56:30.977Z,8.60
2018-12-09T15:59:00.243Z,8.50
2018-12-09T16:01:34.405Z,8.60
2018-12-09T16:04:09.633Z,8.60
2018-12-09T16:06:40.380Z,8.60
2018-12-09T16:09:13.879Z,8.50
2018-12-09T16:11:43.695Z,8.40
2018-12-09T16:14:12.979Z,8.30
2018-12-09T16:16:45.632Z,8.20
2018-12-09T16:19:20.700Z,8.20
2018-12-09T16:21:51.980Z,8.10
2018-12-09T16:24:23.498Z,8.10
2018-12-09T16:26:52.576Z,8.10
2018-12-09T16:29:21.696Z,8.10
2018-12-09T16:31:51.063Z,8.10
2018-12-09T16:34:20.545Z,8.00
2018-12-09T16:36:50.677Z,8.00
2018-12-09T16:39:20.508Z,8.00
2018-12-09T16:41:49.722Z,8.00
2018-12-09T16:44:18.857Z,8.10
2018-12-09T16:46:49.331Z,8.10
2018-12-09T16:49:18.376Z,8.20
2018-12-09T16:51:49.996Z,8.20
2018-12-09T16:54:19.154Z,8.20
2018-12-09T16:56:48.615Z,8.20
2018-12-09T16:59:18.227Z,8.20
2018-12-09T17:01:51.848Z,8.20
2018-12-09T17:04:21.134Z,8.20
2018-12-09T17:06:50.213Z,8.20
2018-12-09T17:09:19.267Z,8.10
2018-12-09T17:11:50.190Z,8.10
2018-12-09T17:14:21.005Z,8.00
2018-12-09T17:16:53.749Z,7.90
2018-12-09T17:19:26.764Z,8.00
2018-12-09T17:21:57.679Z,7.90
2018-12-09T17:24:30.797Z,7.80
2018-12-09T17:27:03.113Z,7.80
2018-12-09T17:32:36.450Z,7.70
2018-12-09T17:35:09.191Z,7.60
2018-12-09T17:37:44.281Z,7.60
2018-12-09T17:40:17.535Z,7.70
2018-12-09T17:42:48.187Z,7.70
2018-12-09T17:45:20.991Z,7.70
2018-12-09T17:47:51.895Z,7.70
2018-12-09T17:50:27.130Z,7.70
2018-12-09T17:53:08.481Z,7.70
2018-12-09T17:55:41.450Z,7.70
2018-12-09T17:58:10.676Z,7.70
2018-12-09T18:00:39.727Z,7.90
2018-12-09T18:03:08.917Z,7.90
2018-12-09T18:05:38.133Z,8.00
2018-12-09T18:08:07.324Z,8.00
2018-12-09T18:10:36.671Z,8.00
2018-12-09T18:13:05.770Z,8.00
2018-12-09T18:15:40.706Z,8.10
2018-12-09T18:18:09.873Z,8.20
2018-12-09T18:20:38.932Z,8.30
2018-12-09T18:23:08.099Z,8.30
2018-12-09T18:25:37.196Z,8.40
2018-12-09T18:28:06.634Z,8.60
2018-12-09T18:30:35.881Z,8.60
2018-12-09T18:33:04.979Z,8.50
2018-12-09T18:35:34.238Z,8.50
2018-12-09T18:38:03.427Z,8.50
2018-12-09T18:40:32.724Z,8.50
2018-12-09T18:43:01.825Z,8.50
2018-12-09T18:45:30.984Z,8.40
2018-12-09T18:48:00.629Z,8.50
2018-12-09T18:50:29.700Z,8.50
2018-12-09T18:52:58.784Z,8.50
2018-12-09T18:55:30.387Z,8.50
2018-12-09T18:58:02.149Z,8.40
2018-12-09T19:00:31.429Z,8.40
2018-12-09T19:03:00.534Z,8.50
2018-12-09T19:05:29.907Z,8.50
2018-12-09T19:08:00.136Z,8.50
2018-12-09T19:10:36.181Z,8.50
2018-12-09T19:13:06.402Z,8.50
2018-12-09T19:15:37.106Z,8.50
2018-12-09T19:18:08.100Z,8.40
2018-12-09T19:20:37.322Z,8.40
2018-12-09T19:23:09.414Z,8.40
2018-12-09T19:25:42.640Z,8.30
2018-12-09T19:28:12.206Z,8.30
2018-12-09T19:30:48.027Z,8.20
2018-12-09T19:33:12.471Z,8.20
2018-12-09T19:35:41.636Z,8.20
2018-12-09T19:38:10.746Z,8.10
2018-12-09T19:40:39.796Z,8.20
2018-12-09T19:43:08.944Z,8.10
2018-12-09T19:45:48.156Z,8.00
2018-12-09T19:48:17.264Z,8.00
2018-12-09T19:50:46.502Z,7.90
2018-12-09T19:53:29.745Z,7.90
2018-12-09T19:56:00.717Z,7.80
2018-12-09T19:58:29.852Z,7.80
2018-12-09T20:00:59.035Z,7.70
2018-12-09T20:03:28.272Z,7.70
2018-12-09T20:05:58.209Z,7.60
2018-12-09T20:08:28.404Z,7.60
2018-12-09T20:10:57.745Z,7.70
2018-12-09T20:13:26.847Z,7.80
2018-12-09T20:15:56.106Z,7.70
2018-12-09T20:18:25.307Z,7.60
2018-12-09T20:20:56.110Z,7.70
2018-12-09T20:23:25.445Z,7.70
2018-12-09T20:25:54.489Z,7.50
2018-12-09T20:28:23.551Z,7.60
2018-12-09T20:30:52.614Z,7.70
2018-12-09T20:33:21.869Z,7.80
2018-12-09T20:35:50.915Z,7.90
2018-12-09T20:38:19.996Z,7.90
2018-12-09T20:40:49.055Z,7.90
2018-12-09T20:43:18.128Z,7.80
2018-12-09T20:45:47.176Z,7.70
2018-12-09T20:48:16.293Z,7.70
2018-12-09T20:50:45.361Z,7.60
2018-12-09T20:53:14.429Z,7.50
2018-12-09T20:55:43.518Z,7.50
2018-12-09T20:58:12.686Z,7.40
2018-12-09T21:00:41.785Z,7.40
2018-12-09T21:03:10.868Z,7.40
2018-12-09T21:05:39.955Z,7.40
2018-12-09T21:08:09.006Z,7.50
2018-12-09T21:10:38.680Z,7.60
2018-12-09T21:13:07.748Z,7.60
2018-12-09T21:15:36.808Z,7.60
2018-12-09T21:18:05.879Z,7.60
2018-12-09T21:20:35.006Z,7.60
2018-12-09T21:23:04.095Z,7.60
2018-12-09T21:25:33.192Z,7.50
2018-12-09T21:28:02.244Z,7.50
2018-12-09T21:30:31.316Z,7.50
2018-12-09T21:36:03.575Z,7.40
2018-12-09T21:38:32.639Z,7.30
2018-12-09T21:41:08.716Z,7.30
2018-12-09T21:43:44.691Z,7.30
2018-12-09T21:46:14.004Z,7.40
2018-12-09T21:48:46.887Z,7.30
2018-12-09T21:51:21.459Z,7.00
2018-12-09T21:54:04.687Z,6.90
